createdAt,value
2022-08-17T00:01:44.924Z,98076.72
2022-08-17T00:04:21.629Z,98072.06
2022-08-17T00:06:49.659Z,98078.25
2022-08-17T00:09:18.336Z,98071.38
2022-08-17T00:12:34.650Z,98068.72
2022-08-17T00:14:36.346Z,98070.66
2022-08-17T00:17:07.125Z,98068.09
2022-08-17T00:19:34.150Z,98068.94
2022-08-17T00:22:32.141Z,98061.06
2022-08-17T00:24:50.645Z,98059.38
2022-08-17T00:27:18.657Z,98074.28
2022-08-17T00:29:46.034Z,98074.16
2022-08-17T00:33:11.958Z,98076.81
2022-08-17T00:35:05.235Z,98078.09
2022-08-17T00:37:32.363Z,98086.22
2022-08-17T00:39:59.396Z,98081.06
2022-08-17T00:42:30.983Z,98086.66
2022-08-17T00:44:59.073Z,98084.97
2022-08-17T00:47:26.282Z,98083.28
2022-08-17T00:49:54.070Z,98082.44
2022-08-17T00:52:24.212Z,98081.91
2022-08-17T00:54:54.857Z,98076.69
2022-08-17T00:57:28.496Z,98087.50
2022-08-17T01:00:06.762Z,98095.22
2022-08-17T01:02:42.105Z,98090.88
2022-08-17T01:05:19.747Z,98083.31
2022-08-17T01:07:51.050Z,98088.78
2022-08-17T01:10:58.841Z,98090.59
2022-08-17T01:13:11.313Z,98085.69
2022-08-17T01:15:41.511Z,98082.72
2022-08-17T01:18:13.912Z,98090.88
2022-08-17T01:20:48.203Z,98089.59
2022-08-17T01:23:20.851Z,98099.69
2022-08-17T01:25:54.170Z,98098.16
2022-08-17T01:28:53.137Z,98093.25
2022-08-17T01:31:10.638Z,98093.91
2022-08-17T01:33:37.953Z,98104.03
2022-08-17T01:36:07.326Z,98103.56
2022-08-17T01:38:35.930Z,98106.53
2022-08-17T01:41:08.054Z,98103.16
2022-08-17T01:43:44.912Z,98105.09
2022-08-17T01:46:17.082Z,98108.88
2022-08-17T01:48:47.548Z,98109.28
2022-08-17T01:51:16.076Z,98108.47
2022-08-17T01:53:50.650Z,98112.94
2022-08-17T01:56:21.380Z,98109.41
2022-08-17T01:58:48.689Z,98105.91
2022-08-17T02:01:20.928Z,98108.72
2022-08-17T02:03:53.260Z,98101.56
2022-08-17T02:06:27.802Z,98101.69
2022-08-17T02:09:01.787Z,98104.66
2022-08-17T02:11:33.300Z,98103.91
2022-08-17T02:14:03.393Z,98109.47
2022-08-17T02:16:38.235Z,98104.56
2022-08-17T02:19:08.532Z,98102.06
2022-08-17T02:21:37.314Z,98103.13
2022-08-17T02:24:06.859Z,98103.53
2022-08-17T02:26:33.929Z,98112.81
2022-08-17T02:29:00.776Z,98103.09
2022-08-17T02:31:27.597Z,98103.94
2022-08-17T02:33:56.789Z,98098.88
2022-08-17T02:36:31.927Z,98102.50
2022-08-17T02:39:05.271Z,98104.50
2022-08-17T02:41:33.120Z,98101.69
2022-08-17T02:44:01.078Z,98105.19
2022-08-17T02:46:28.537Z,98106.88
2022-08-17T02:48:55.387Z,98108.56
2022-08-17T02:51:22.615Z,98099.59
2022-08-17T02:53:49.760Z,98104.81
2022-08-17T02:56:17.061Z,98109.44
2022-08-17T02:58:44.065Z,98100.72
2022-08-17T03:01:11.142Z,98105.06
2022-08-17T03:03:38.819Z,98118.38
2022-08-17T03:06:07.735Z,98114.59
2022-08-17T03:08:35.424Z,98110.25
2022-08-17T03:11:02.261Z,98110.50
2022-08-17T03:13:30.870Z,98109.81
2022-08-17T03:15:58.182Z,98109.22
2022-08-17T03:18:26.319Z,98109.22
2022-08-17T03:20:55.729Z,98114.56
2022-08-17T03:23:24.384Z,98119.06
2022-08-17T03:25:52.754Z,98122.25
2022-08-17T03:28:20.318Z,98126.19
2022-08-17T03:30:47.541Z,98124.25
2022-08-17T03:33:14.777Z,98128.47
2022-08-17T03:35:41.857Z,98127.78
2022-08-17T03:38:11.126Z,98134.91
2022-08-17T03:40:56.674Z,98132.50
2022-08-17T03:43:30.063Z,98127.88
2022-08-17T03:46:27.273Z,98132.81
2022-08-17T03:49:19.910Z,98132.84
2022-08-17T03:52:05.372Z,98137.66
2022-08-17T03:54:51.094Z,98129.28
2022-08-17T03:57:19.274Z,98130.38
2022-08-17T03:59:47.734Z,98138.09
2022-08-17T04:02:20.789Z,98143.31
2022-08-17T04:04:52.369Z,98131.69
2022-08-17T04:07:22.032Z,98134.81
2022-08-17T04:09:49.688Z,98132.88
2022-08-17T04:12:22.321Z,98139.16
2022-08-17T04:14:53.381Z,98132.72
2022-08-17T04:17:24.687Z,98130.63
2022-08-17T04:19:52.160Z,98140.75
2022-08-17T04:22:30.249Z,98141.31
2022-08-17T04:25:16.070Z,98132.47
2022-08-17T04:27:42.906Z,98141.78
2022-08-17T04:30:10.708Z,98135.47
2022-08-17T04:33:05.090Z,98136.47
2022-08-17T04:35:39.315Z,98133.69
2022-08-17T04:38:11.137Z,98136.81
2022-08-17T04:40:57.045Z,98134.59
2022-08-17T04:43:26.794Z,98140.50
2022-08-17T04:46:02.504Z,98147.84
2022-08-17T04:48:36.168Z,98139.53
2022-08-17T04:51:09.914Z,98144.28
2022-08-17T04:53:38.126Z,98140.94
2022-08-17T04:56:05.487Z,98139.91
2022-08-17T04:58:32.749Z,98144.19
2022-08-17T05:00:59.948Z,98143.28
2022-08-17T05:03:28.345Z,98138.22
2022-08-17T05:05:55.277Z,98134.19
2022-08-17T05:08:22.591Z,98130.56
2022-08-17T05:10:50.251Z,98138.19
2022-08-17T05:13:19.853Z,98136.72
2022-08-17T05:15:48.857Z,98133.88
2022-08-17T05:18:16.763Z,98142.22
2022-08-17T05:20:44.068Z,98150.16
2022-08-17T05:23:13.751Z,98153.78
2022-08-17T05:25:47.754Z,98150.97
2022-08-17T05:28:16.808Z,98157.81
2022-08-17T05:30:46.190Z,98160.63
2022-08-17T05:33:25.625Z,98166.22
2022-08-17T05:35:56.136Z,98159.91
2022-08-17T05:38:26.171Z,98169.34
2022-08-17T05:40:54.289Z,98162.44
2022-08-17T05:43:24.351Z,98155.50
2022-08-17T05:46:03.610Z,98153.63
2022-08-17T05:48:39.983Z,98156.19
2022-08-17T05:51:48.755Z,98163.34
2022-08-17T05:54:27.068Z,98154.19
2022-08-17T05:56:53.840Z,98150.47
2022-08-17T05:59:36.391Z,98157.16
2022-08-17T06:02:23.106Z,98161.84
2022-08-17T06:05:08.705Z,98159.56
2022-08-17T06:07:54.756Z,98160.50
2022-08-17T06:10:44.218Z,98162.41
2022-08-17T06:13:26.010Z,98168.72
2022-08-17T06:16:33.071Z,98173.16
2022-08-17T06:19:00.996Z,98182.09
2022-08-17T06:21:34.249Z,98185.81
2022-08-17T06:24:34.365Z,98178.94
2022-08-17T06:27:10.180Z,98186.75
2022-08-17T06:29:58.168Z,98183.53
2022-08-17T06:32:25.686Z,98182.63
2022-08-17T06:34:53.645Z,98183.31
2022-08-17T06:37:31.977Z,98175.53
2022-08-17T06:40:20.986Z,98185.75
2022-08-17T06:43:05.025Z,98187.78
2022-08-17T06:45:41.965Z,98181.41
2022-08-17T06:48:15.337Z,98183.22
2022-08-17T06:50:49.197Z,98190.78
2022-08-17T06:53:59.980Z,98186.13
2022-08-17T06:56:53.568Z,98191.44
2022-08-17T06:59:54.374Z,98184.75
2022-08-17T07:02:51.555Z,98190.50
2022-08-17T07:05:24.500Z,98187.84
2022-08-17T07:08:04.042Z,98195.34
2022-08-17T07:10:37.382Z,98186.13
2022-08-17T07:13:21.758Z,98194.22
2022-08-17T07:15:56.421Z,98195.41
2022-08-17T07:18:26.723Z,98188.06
2022-08-17T07:20:59.941Z,98189.69
2022-08-17T07:23:38.290Z,98194.25
2022-08-17T07:26:06.294Z,98197.09
2022-08-17T07:28:34.999Z,98198.03
2022-08-17T07:31:04.750Z,98196.94
2022-08-17T07:33:35.046Z,98193.84
2022-08-17T07:36:02.440Z,98194.34
2022-08-17T07:38:32.073Z,98199.72
2022-08-17T07:41:05.063Z,98199.38
2022-08-17T07:43:41.042Z,98193.88
2022-08-17T07:46:42.395Z,98198.03
2022-08-17T07:49:09.357Z,98195.75
2022-08-17T07:51:45.831Z,98191.66
2022-08-17T07:54:15.976Z,98187.41
2022-08-17T07:56:45.630Z,98194.25
2022-08-17T07:59:24.375Z,98197.81
2022-08-17T08:01:58.103Z,98193.97
2022-08-17T08:07:16.422Z,98189.50
2022-08-17T08:10:00.870Z,98195.97
2022-08-17T08:12:43.842Z,98195.91
2022-08-17T08:15:33.302Z,98186.41
2022-08-17T08:18:03.747Z,98198.00
2022-08-17T08:20:55.332Z,98197.13
2022-08-17T08:23:33.496Z,98202.03
2022-08-17T08:26:18.587Z,98198.50
2022-08-17T08:29:11.404Z,98200.28
2022-08-17T08:32:08.619Z,98198.69
2022-08-17T08:35:01.428Z,98197.69
2022-08-17T08:37:43.675Z,98194.31
2022-08-17T08:40:32.754Z,98203.31
2022-08-17T08:43:08.969Z,98208.13
2022-08-17T08:45:57.869Z,98203.22
2022-08-17T08:49:00.921Z,98192.00
2022-08-17T08:51:57.991Z,98195.75
2022-08-17T08:54:31.411Z,98192.06
2022-08-17T09:00:07.931Z,98201.66
2022-08-17T09:02:44.025Z,98202.03
2022-08-17T09:05:33.659Z,98201.38
2022-08-17T09:08:25.481Z,98196.13
2022-08-17T09:11:13.144Z,98194.50
2022-08-17T09:14:17.143Z,98188.78
2022-08-17T09:16:55.168Z,98188.53
2022-08-17T09:19:36.738Z,98178.00
2022-08-17T09:22:17.473Z,98185.75
2022-08-17T09:24:54.694Z,98180.97
2022-08-17T09:27:28.397Z,98173.53
2022-08-17T09:30:00.775Z,98185.56
2022-08-17T09:32:49.995Z,98198.09
2022-08-17T09:35:24.151Z,98200.41
2022-08-17T09:37:56.025Z,98200.06
2022-08-17T09:40:32.990Z,98199.47
2022-08-17T09:43:07.081Z,98207.50
2022-08-17T09:45:51.219Z,98203.69
2022-08-17T09:48:25.311Z,98205.25
2022-08-17T09:51:36.233Z,98204.09
2022-08-17T09:54:34.989Z,98208.59
2022-08-17T09:57:31.790Z,98207.06
2022-08-17T10:00:25.221Z,98217.63
2022-08-17T10:03:10.256Z,98214.06
2022-08-17T10:05:46.474Z,98223.84
2022-08-17T10:08:23.032Z,98219.09
2022-08-17T10:11:07.137Z,98222.72
2022-08-17T10:13:41.334Z,98217.47
2022-08-17T10:16:26.169Z,98211.75
2022-08-17T10:19:02.589Z,98214.16
2022-08-17T10:22:01.222Z,98205.44
2022-08-17T10:25:21.067Z,98219.41
2022-08-17T10:27:52.777Z,98221.53
2022-08-17T10:30:23.735Z,98226.63
2022-08-17T10:33:04.756Z,98222.00
2022-08-17T10:35:44.098Z,98220.38
2022-08-17T10:38:26.036Z,98220.88
2022-08-17T10:41:02.250Z,98223.19
2022-08-17T10:43:36.894Z,98222.06
2022-08-17T10:46:31.238Z,98223.69
2022-08-17T10:49:17.124Z,98222.66
2022-08-17T10:51:50.036Z,98225.53
2022-08-17T10:54:35.868Z,98214.59
2022-08-17T10:57:23.096Z,98213.81
2022-08-17T10:59:52.803Z,98210.25
2022-08-17T11:02:19.741Z,98207.50
2022-08-17T11:05:24.158Z,98210.56
2022-08-17T11:08:17.696Z,98208.00
2022-08-17T11:10:58.158Z,98209.84
2022-08-17T11:13:34.351Z,98207.69
2022-08-17T11:16:32.661Z,98201.03
2022-08-17T11:19:21.340Z,98203.94
2022-08-17T11:22:22.896Z,98202.78
2022-08-17T11:24:53.655Z,98202.59
2022-08-17T11:27:30.483Z,98202.28
2022-08-17T11:30:12.331Z,98209.75
2022-08-17T11:32:54.354Z,98195.69
2022-08-17T11:35:21.863Z,98188.88
2022-08-17T11:38:18.072Z,98193.00
2022-08-17T11:41:09.812Z,98188.78
2022-08-17T11:44:10.600Z,98195.00
2022-08-17T11:47:18.186Z,98189.63
2022-08-17T11:50:41.761Z,98192.53
2022-08-17T11:53:38.071Z,98191.09
2022-08-17T11:56:09.624Z,98187.19
2022-08-17T11:58:45.051Z,98191.00
2022-08-17T12:01:24.327Z,98190.22
2022-08-17T12:03:57.097Z,98188.50
2022-08-17T12:06:56.926Z,98193.41
2022-08-17T12:09:28.597Z,98199.25
2022-08-17T12:12:13.335Z,98196.84
2022-08-17T12:15:10.492Z,98191.69
2022-08-17T12:17:40.739Z,98196.06
2022-08-17T12:20:19.765Z,98192.72
2022-08-17T12:23:04.443Z,98183.94
2022-08-17T12:25:56.893Z,98185.66
2022-08-17T12:28:29.594Z,98199.81
2022-08-17T12:31:01.758Z,98188.38
2022-08-17T12:33:29.159Z,98183.03
2022-08-17T12:36:05.560Z,98185.59
2022-08-17T12:38:36.133Z,98179.69
2022-08-17T12:41:25.069Z,98179.28
2022-08-17T12:44:23.228Z,98188.53
2022-08-17T12:47:10.780Z,98191.31
2022-08-17T12:49:41.612Z,98193.66
2022-08-17T12:52:26.035Z,98187.50
2022-08-17T12:55:21.308Z,98195.78
2022-08-17T12:57:54.343Z,98190.13
2022-08-17T13:00:41.231Z,98197.06
2022-08-17T13:03:23.947Z,98204.16
2022-08-17T13:06:03.433Z,98202.00
2022-08-17T13:08:48.066Z,98202.44
2022-08-17T13:11:16.239Z,98195.09
2022-08-17T13:13:52.054Z,98193.44
2022-08-17T13:16:27.740Z,98186.94
2022-08-17T13:19:06.906Z,98181.47
2022-08-17T13:21:35.544Z,98189.88
2022-08-17T13:24:17.452Z,98192.16
2022-08-17T13:27:07.906Z,98200.63
2022-08-17T13:29:44.304Z,98194.53
2022-08-17T13:32:13.078Z,98194.69
2022-08-17T13:35:12.390Z,98201.78
2022-08-17T13:37:34.366Z,98198.31
2022-08-17T13:40:16.230Z,98200.19
2022-08-17T13:42:51.780Z,98204.56
2022-08-17T13:45:36.126Z,98199.78
2022-08-17T13:48:08.800Z,98205.50
2022-08-17T13:50:49.313Z,98192.31
2022-08-17T13:53:21.282Z,98191.06
2022-08-17T13:55:58.398Z,98194.03
2022-08-17T13:58:32.994Z,98187.59
2022-08-17T14:01:38.470Z,98181.53
2022-08-17T14:04:18.112Z,98181.94
2022-08-17T14:07:12.532Z,98182.75
2022-08-17T14:09:51.859Z,98173.59
2022-08-17T14:12:21.947Z,98181.56
2022-08-17T14:14:49.696Z,98185.38
2022-08-17T14:17:16.672Z,98183.25
2022-08-17T14:19:43.459Z,98195.19
2022-08-17T14:22:27.038Z,98182.63
2022-08-17T14:24:54.199Z,98197.91
2022-08-17T14:27:21.858Z,98208.91
2022-08-17T14:29:49.165Z,98205.34
2022-08-17T14:32:21.211Z,98209.44
2022-08-17T14:34:49.758Z,98209.28
2022-08-17T14:37:18.323Z,98206.44
2022-08-17T14:39:45.291Z,98203.53
2022-08-17T14:42:12.644Z,98200.03
2022-08-17T14:44:40.096Z,98204.00
2022-08-17T14:47:11.984Z,98208.28
2022-08-17T14:49:39.015Z,98215.44
2022-08-17T14:52:06.242Z,98207.09
2022-08-17T14:54:34.622Z,98211.25
2022-08-17T14:57:23.384Z,98220.16
2022-08-17T14:59:54.545Z,98216.97
2022-08-17T15:02:29.507Z,98221.00
2022-08-17T15:05:05.494Z,98213.91
2022-08-17T15:07:32.566Z,98210.59
2022-08-17T15:10:01.416Z,98204.91
2022-08-17T15:12:33.309Z,98214.16
2022-08-17T15:15:04.610Z,98217.16
2022-08-17T15:17:44.430Z,98227.50
2022-08-17T15:20:16.206Z,98227.16
2022-08-17T15:22:45.543Z,98222.66
2022-08-17T15:25:13.691Z,98226.84
2022-08-17T15:27:41.735Z,98218.94
2022-08-17T15:30:10.128Z,98225.91
2022-08-17T15:32:39.619Z,98225.34
2022-08-17T15:35:09.155Z,98229.25
2022-08-17T15:37:36.454Z,98230.84
2022-08-17T15:40:04.616Z,98225.16
2022-08-17T15:42:31.790Z,98217.84
2022-08-17T15:45:00.138Z,98222.03
2022-08-17T15:47:27.065Z,98222.59
2022-08-17T15:49:59.426Z,98232.13
2022-08-17T15:52:32.071Z,98231.84
2022-08-17T15:55:00.834Z,98240.97
2022-08-17T15:57:28.208Z,98246.16
2022-08-17T15:59:58.400Z,98254.38
2022-08-17T16:03:44.649Z,98254.31
2022-08-17T16:05:24.863Z,98244.34
2022-08-17T16:07:53.166Z,98249.03
2022-08-17T16:10:21.169Z,98247.00
2022-08-17T16:12:49.686Z,98251.34
2022-08-17T16:15:18.876Z,98259.19
2022-08-17T16:17:45.682Z,98255.09
2022-08-17T16:20:19.699Z,98265.28
2022-08-17T16:22:49.494Z,98268.94
2022-08-17T16:25:51.892Z,98267.56
2022-08-17T16:28:16.608Z,98277.03
2022-08-17T16:30:43.590Z,98279.47
2022-08-17T16:33:11.755Z,98273.06
2022-08-17T16:35:39.019Z,98277.81
2022-08-17T16:38:06.977Z,98269.69
2022-08-17T16:40:35.994Z,98280.34
2022-08-17T16:43:04.619Z,98272.22
2022-08-17T16:45:36.960Z,98272.41
2022-08-17T16:48:04.558Z,98268.38
2022-08-17T16:50:32.376Z,98277.03
2022-08-17T16:53:09.066Z,98278.63
2022-08-17T16:55:36.444Z,98284.56
2022-08-17T16:58:05.584Z,98286.78
2022-08-17T17:00:33.696Z,98293.44
2022-08-17T17:03:19.498Z,98310.47
2022-08-17T17:06:14.454Z,98309.34
2022-08-17T17:08:48.549Z,98304.66
2022-08-17T17:11:21.618Z,98315.72
2022-08-17T17:13:54.198Z,98306.72
2022-08-17T17:16:31.834Z,98314.53
2022-08-17T17:19:10.376Z,98311.63
2022-08-17T17:21:56.777Z,98311.63
2022-08-17T17:25:05.583Z,98307.72
2022-08-17T17:27:32.326Z,98308.25
2022-08-17T17:30:10.144Z,98305.59
2022-08-17T17:32:52.839Z,98306.59
2022-08-17T17:35:34.947Z,98315.84
2022-08-17T17:38:11.091Z,98316.16
2022-08-17T17:40:41.931Z,98319.19
2022-08-17T17:43:37.016Z,98326.72
2022-08-17T17:46:30.796Z,98333.16
2022-08-17T17:48:58.176Z,98333.06
2022-08-17T17:52:09.075Z,98334.88
2022-08-17T17:55:04.598Z,98333.09
2022-08-17T17:57:59.649Z,98335.47
2022-08-17T18:00:33.982Z,98343.09
2022-08-17T18:03:16.432Z,98343.34
2022-08-17T18:05:49.179Z,98347.38
2022-08-17T18:08:32.052Z,98348.28
2022-08-17T18:11:24.413Z,98352.44
2022-08-17T18:14:16.437Z,98357.28
2022-08-17T18:16:45.253Z,98359.81
2022-08-17T18:19:21.054Z,98360.66
2022-08-17T18:21:54.508Z,98366.03
2022-08-17T18:24:39.879Z,98368.69
2022-08-17T18:27:39.398Z,98371.38
2022-08-17T18:30:28.882Z,98367.50
2022-08-17T18:33:23.297Z,98374.72
2022-08-17T18:35:58.908Z,98376.25
2022-08-17T18:38:34.233Z,98382.44
2022-08-17T18:41:19.790Z,98384.28
2022-08-17T18:44:02.861Z,98381.59
2022-08-17T18:46:36.800Z,98382.44
2022-08-17T18:49:24.296Z,98383.59
2022-08-17T18:52:15.762Z,98379.06
2022-08-17T18:55:11.557Z,98382.75
2022-08-17T18:57:48.449Z,98382.06
2022-08-17T19:00:20.996Z,98376.16
2022-08-17T19:02:52.244Z,98387.91
2022-08-17T19:05:36.679Z,98379.75
2022-08-17T19:08:30.532Z,98381.19
2022-08-17T19:11:07.454Z,98381.50
2022-08-17T19:13:40.212Z,98383.47
2022-08-17T19:16:29.447Z,98386.94
2022-08-17T19:19:00.110Z,98380.88
2022-08-17T19:21:48.071Z,98386.97
2022-08-17T19:24:19.486Z,98388.97
2022-08-17T19:26:55.888Z,98389.28
2022-08-17T19:29:50.738Z,98380.97
2022-08-17T19:32:26.518Z,98383.88
2022-08-17T19:34:55.065Z,98386.69
2022-08-17T19:37:36.721Z,98385.31
2022-08-17T19:40:20.307Z,98392.66
2022-08-17T19:43:15.317Z,98395.09
2022-08-17T19:45:58.383Z,98401.03
2022-08-17T19:48:40.394Z,98396.28
2022-08-17T19:51:17.986Z,98394.88
2022-08-17T19:54:06.293Z,98402.38
2022-08-17T19:56:54.535Z,98398.44
2022-08-17T20:00:03.513Z,98402.53
2022-08-17T20:02:56.355Z,98401.84
2022-08-17T20:05:28.233Z,98404.81
2022-08-17T20:08:01.200Z,98403.72
2022-08-17T20:10:35.198Z,98421.75
2022-08-17T20:13:11.090Z,98418.38
2022-08-17T20:15:43.140Z,98412.75
2022-08-17T20:18:19.072Z,98408.84
2022-08-17T20:20:59.803Z,98406.72
2022-08-17T20:23:36.312Z,98411.38
2022-08-17T20:26:19.393Z,98412.63
2022-08-17T20:29:07.633Z,98412.22
2022-08-17T20:31:57.414Z,98413.38
2022-08-17T20:34:33.738Z,98415.03
2022-08-17T20:37:04.438Z,98415.34
2022-08-17T20:39:47.021Z,98414.75
2022-08-17T20:42:22.701Z,98409.00
2022-08-17T20:44:53.533Z,98413.78
2022-08-17T20:47:28.624Z,98415.91
2022-08-17T20:50:07.187Z,98423.66
2022-08-17T20:52:51.079Z,98421.53
2022-08-17T20:55:51.166Z,98431.53
2022-08-17T20:58:30.563Z,98419.66
2022-08-17T21:00:59.004Z,98426.56
2022-08-17T21:03:49.944Z,98426.09
2022-08-17T21:06:18.435Z,98429.78
2022-08-17T21:08:53.873Z,98428.34
2022-08-17T21:12:02.765Z,98429.19
2022-08-17T21:15:16.177Z,98420.88
2022-08-17T21:18:08.169Z,98423.72
2022-08-17T21:20:47.483Z,98427.47
2022-08-17T21:23:17.303Z,98420.59
2022-08-17T21:26:02.620Z,98422.53
2022-08-17T21:28:59.933Z,98425.63
2022-08-17T21:31:38.236Z,98432.25
2022-08-17T21:34:14.983Z,98427.44
2022-08-17T21:36:44.433Z,98436.59
2022-08-17T21:39:33.126Z,98432.50
2022-08-17T21:42:00.563Z,98437.97
2022-08-17T21:44:32.289Z,98438.09
2022-08-17T21:47:28.119Z,98439.22
2022-08-17T21:49:56.238Z,98442.03
2022-08-17T21:52:26.918Z,98436.94
2022-08-17T21:54:58.498Z,98447.63
2022-08-17T21:57:28.180Z,98448.75
2022-08-17T21:59:59.841Z,98445.53
2022-08-17T22:02:34.347Z,98448.44
2022-08-17T22:05:12.323Z,98454.91
2022-08-17T22:07:43.233Z,98447.28
2022-08-17T22:10:39.382Z,98436.53
2022-08-17T22:13:16.818Z,98442.00
2022-08-17T22:15:49.804Z,98430.72
2022-08-17T22:18:25.123Z,98429.31
2022-08-17T22:20:55.237Z,98432.25
2022-08-17T22:24:01.552Z,98429.97
2022-08-17T22:27:03.658Z,98435.44
2022-08-17T22:29:53.146Z,98438.97
2022-08-17T22:32:45.489Z,98436.00
2022-08-17T22:35:34.588Z,98451.41
2022-08-17T22:38:19.609Z,98443.69
2022-08-17T22:40:52.602Z,98439.44
2022-08-17T22:43:26.457Z,98444.19
2022-08-17T22:45:56.141Z,98442.75
2022-08-17T22:48:27.892Z,98441.09
2022-08-17T22:51:12.264Z,98439.50
2022-08-17T22:54:06.304Z,98436.25
2022-08-17T22:56:52.545Z,98439.75
2022-08-17T22:59:34.338Z,98443.94
2022-08-17T23:02:26.198Z,98439.81
2022-08-17T23:04:55.693Z,98430.84
2022-08-17T23:07:23.123Z,98439.09
2022-08-17T23:09:52.439Z,98434.75
2022-08-17T23:12:23.351Z,98436.38
2022-08-17T23:14:57.141Z,98432.00
2022-08-17T23:17:24.487Z,98440.00
2022-08-17T23:19:51.893Z,98429.31
2022-08-17T23:22:18.739Z,98423.28
2022-08-17T23:24:49.877Z,98419.03
2022-08-17T23:27:19.062Z,98425.75
2022-08-17T23:29:47.202Z,98423.31
2022-08-17T23:32:17.226Z,98425.16
2022-08-17T23:34:47.168Z,98425.31
2022-08-17T23:37:15.360Z,98416.59
2022-08-17T23:39:45.059Z,98415.59
2022-08-17T23:42:21.735Z,98415.72
2022-08-17T23:44:49.465Z,98412.09
2022-08-17T23:47:16.551Z,98408.59
2022-08-17T23:49:43.501Z,98410.66
2022-08-17T23:52:15.035Z,98409.81
2022-08-17T23:54:46.688Z,98412.47
2022-08-17T23:57:19.125Z,98404.00
2022-08-17T23:59:46.362Z,98413.81
